Time;durP1;ratioP1;P1;durP2;ratioP2;P2;SDS_P1;SDS_P2;PMS_P1;PMS_P2;Temp;Humidity;BMP_temperature;BMP_pressure;BME280_temperature;BME280_humidity;BME280_pressure;Samples;Min_cycle;Max_cycle;Signal;HPM_P1;HPM_P2
2022/03/09 00:00:47;;;;;;;16.98;9.93;;;;;;;-4.03;76.47;99339.16;4192496;28;20040;-72
2022/03/09 00:02:47;;;;;;;22.83;10.20;;;;;;;-4.11;77.09;99339.66;4194705;28;20047;-72
2022/03/09 00:04:48;;;;;;;26.88;10.65;;;;;;;-4.22;77.55;99346.06;4193580;28;20472;-73
2022/03/09 00:06:48;;;;;;;23.40;10.70;;;;;;;-4.33;78.44;99350.59;4192703;28;20040;-72
2022/03/09 00:08:48;;;;;;;16.52;9.13;;;;;;;-4.40;79.01;99341.88;4194290;28;20133;-72
2022/03/09 00:10:49;;;;;;;17.08;9.20;;;;;;;-4.37;79.70;99344.91;4193315;28;20040;-72
2022/03/09 00:12:49;;;;;;;20.33;9.23;;;;;;;-4.33;79.54;99327.06;4191945;28;20123;-73
2022/03/09 00:14:49;;;;;;;16.65;9.15;;;;;;;-4.33;78.31;99337.06;4194036;28;20116;-72
2022/03/09 00:16:50;;;;;;;14.50;8.27;;;;;;;-4.37;78.00;99339.50;4191989;28;20414;-72
2022/03/09 00:18:51;;;;;;;15.25;7.95;;;;;;;-4.43;78.86;99348.63;4193548;28;20299;-72
2022/03/09 00:20:51;;;;;;;17.67;9.27;;;;;;;-4.52;79.34;99342.88;4193757;28;20498;-72
2022/03/09 00:22:51;;;;;;;17.38;8.82;;;;;;;-4.54;79.04;99349.63;4193859;28;20045;-72
2022/03/09 00:24:51;;;;;;;19.38;9.05;;;;;;;-4.58;78.48;99340.41;4195279;28;20048;-72
2022/03/09 00:26:52;;;;;;;28.23;9.27;;;;;;;-4.66;78.81;99338.19;4191110;28;20380;-72
2022/03/09 00:28:52;;;;;;;18.33;9.52;;;;;;;-4.70;79.59;99343.28;4193189;28;20072;-72
2022/03/09 00:30:52;;;;;;;20.88;9.68;;;;;;;-4.79;79.70;99336.72;4193619;28;20055;-71
2022/03/09 00:32:53;;;;;;;18.83;8.35;;;;;;;-4.79;80.18;99354.81;4194370;28;20045;-71
2022/03/09 00:34:53;;;;;;;16.42;9.32;;;;;;;-4.86;79.97;99355.84;4193291;28;20048;-72
2022/03/09 00:36:53;;;;;;;20.20;9.15;;;;;;;-4.83;80.14;99354.50;4193164;28;20288;-72
2022/03/09 00:38:54;;;;;;;18.13;8.63;;;;;;;-4.71;79.88;99349.75;4193849;28;20292;-72
2022/03/09 00:40:55;;;;;;;16.67;8.25;;;;;;;-4.70;79.70;99347.88;4191649;28;20040;-72
2022/03/09 00:42:56;;;;;;;16.90;8.55;;;;;;;-4.68;79.94;99353.81;4194738;28;20538;-72
2022/03/09 00:44:56;;;;;;;19.27;9.48;;;;;;;-4.66;79.70;99349.78;4193837;28;20064;-71
2022/03/09 00:46:56;;;;;;;20.25;9.15;;;;;;;-4.62;77.72;99339.31;4193318;28;20081;-72
2022/03/09 00:48:57;;;;;;;19.27;8.93;;;;;;;-4.63;77.73;99343.88;4191044;28;20379;-72
2022/03/09 00:50:57;;;;;;;16.80;9.02;;;;;;;-4.71;78.53;99349.75;4193146;28;20048;-72
2022/03/09 00:52:57;;;;;;;19.52;9.43;;;;;;;-4.83;79.49;99344.50;4192186;28;20127;-72
2022/03/09 00:54:58;;;;;;;19.48;9.15;;;;;;;-4.92;81.17;99354.16;4192330;28;20069;-72
2022/03/09 00:56:58;;;;;;;15.70;8.75;;;;;;;-4.97;81.08;99343.28;4189282;28;20049;-72
2022/03/09 00:58:58;;;;;;;21.48;9.10;;;;;;;-4.90;80.70;99348.50;4192332;28;20055;-72
2022/03/09 01:00:59;;;;;;;21.50;9.05;;;;;;;-4.94;80.22;99356.31;4190789;28;20834;-72
2022/03/09 01:02:59;;;;;;;16.65;8.80;;;;;;;-4.96;80.74;99354.94;4192775;28;20784;-72
2022/03/09 01:04:59;;;;;;;17.75;8.93;;;;;;;-5.01;80.41;99368.38;4194933;28;20083;-72
2022/03/09 01:07:00;;;;;;;16.23;7.90;;;;;;;-5.05;81.03;99357.25;4201080;28;20082;-72
2022/03/09 01:09:02;;;;;;;17.35;8.57;;;;;;;-5.09;80.38;99359.66;4198208;28;20865;-71
2022/03/09 01:11:02;;;;;;;15.93;8.25;;;;;;;-5.12;80.69;99359.34;4195426;28;20040;-72
2022/03/09 01:13:03;;;;;;;17.23;8.55;;;;;;;-5.18;80.91;99358.47;4188188;28;20472;-72
2022/03/09 01:15:04;;;;;;;20.80;9.02;;;;;;;-5.23;81.40;99365.69;4187640;28;20127;-72
2022/03/09 01:17:05;;;;;;;19.05;8.82;;;;;;;-5.30;83.35;99363.19;4187040;28;20435;-72
2022/03/09 01:19:05;;;;;;;20.27;8.50;;;;;;;-5.28;83.50;99365.66;4187728;28;20076;-72
2022/03/09 01:21:05;;;;;;;18.38;9.60;;;;;;;-5.26;82.76;99371.63;4187509;28;20444;-72
2022/03/09 01:23:06;;;;;;;19.58;8.60;;;;;;;-5.22;81.29;99372.72;4194952;28;20661;-72
2022/03/09 01:25:06;;;;;;;17.15;8.85;;;;;;;-5.22;82.40;99372.72;4202771;28;20047;-72
2022/03/09 01:27:07;;;;;;;15.35;8.30;;;;;;;-5.23;82.31;99381.88;4202135;28;20123;-72
2022/03/09 01:29:09;;;;;;;16.13;8.27;;;;;;;-5.24;82.39;99383.78;4202154;28;20048;-72
2022/03/09 01:31:09;;;;;;;14.90;8.10;;;;;;;-5.29;82.97;99382.91;4188212;28;20040;-72
2022/03/09 01:33:09;;;;;;;16.20;8.18;;;;;;;-5.35;82.69;99384.72;4195632;28;20635;-72
2022/03/09 01:35:10;;;;;;;16.55;8.35;;;;;;;-5.37;83.27;99387.69;4187135;28;20037;-72
2022/03/09 01:37:10;;;;;;;15.70;7.45;;;;;;;-5.41;82.78;99388.44;4192308;28;20334;-72
2022/03/09 01:39:11;;;;;;;22.63;8.65;;;;;;;-5.43;83.90;99380.59;4192628;28;20370;-72
2022/03/09 01:41:11;;;;;;;16.25;7.68;;;;;;;-5.48;84.43;99387.78;4187192;28;20484;-72
2022/03/09 01:43:14;;;;;;;18.00;9.27;;;;;;;-5.51;84.53;99389.13;4187394;28;20097;-72
2022/03/09 01:45:15;;;;;;;15.25;7.97;;;;;;;-5.55;84.47;99384.47;4187285;28;20037;-72
2022/03/09 01:47:15;;;;;;;18.42;8.38;;;;;;;-5.59;84.18;99396.84;4201552;28;20395;-72
2022/03/09 01:49:16;;;;;;;14.68;8.40;;;;;;;-5.64;84.61;99397.56;4186414;28;20070;-72
2022/03/09 01:51:16;;;;;;;17.33;9.27;;;;;;;-5.65;85.27;99391.38;4187439;28;20044;-72
2022/03/09 01:53:18;;;;;;;16.02;8.75;;;;;;;-5.67;85.15;99390.81;4187423;28;20068;-72
2022/03/09 01:55:18;;;;;;;16.65;7.97;;;;;;;-5.72;85.37;99388.03;4187557;28;20052;-72
2022/03/09 01:57:20;;;;;;;16.63;7.72;;;;;;;-5.74;84.76;99389.34;4199772;28;20036;-72
2022/03/09 01:59:20;;;;;;;17.10;8.25;;;;;;;-5.78;84.79;99389.06;4201567;28;20032;-72
2022/03/09 02:01:20;;;;;;;15.50;8.68;;;;;;;-5.78;85.73;99389.06;4187481;28;20504;-72
2022/03/09 02:03:20;;;;;;;17.75;8.98;;;;;;;-5.83;85.78;99386.28;4186589;28;20036;-72
2022/03/09 02:05:21;;;;;;;16.42;9.15;;;;;;;-5.87;85.30;99379.78;4187067;28;20040;-72
2022/03/09 02:09:46;;;;;;;14.63;7.55;;;;;;;-5.88;84.89;99385.38;4200161;28;20494;-72
2022/03/09 02:11:48;;;;;;;22.55;8.68;;;;;;;-5.87;85.92;99374.38;4190248;28;20036;-72
2022/03/09 02:13:48;;;;;;;16.77;8.98;;;;;;;-5.89;86.51;99372.97;4203008;28;20050;-72
2022/03/09 02:15:49;;;;;;;18.42;8.82;;;;;;;-5.87;86.53;99371.69;4201841;28;20408;-72
2022/03/09 02:17:49;;;;;;;17.45;8.85;;;;;;;-5.89;87.07;99378.38;4190541;28;20514;-71
2022/03/09 02:19:51;;;;;;;14.07;8.38;;;;;;;-5.91;87.04;99370.56;4186243;28;20044;-72
2022/03/09 02:21:58;;;;;;;17.30;9.25;;;;;;;-5.84;87.53;99373.06;4189939;28;20040;-71
2022/03/09 02:23:59;;;;;;;16.15;8.40;;;;;;;-5.81;87.33;99367.97;4201852;28;20048;-72
2022/03/09 02:25:59;;;;;;;16.45;8.32;;;;;;;-5.79;88.18;99362.31;4201719;28;20040;-72
2022/03/09 02:28:01;;;;;;;18.73;9.57;;;;;;;-5.75;88.47;99363.47;4201461;28;20044;-72
2022/03/09 02:30:03;;;;;;;17.48;9.00;;;;;;;-5.69;88.60;99368.69;4201289;28;20051;-73
2022/03/09 02:32:04;;;;;;;19.73;10.53;;;;;;;-5.70;88.79;99355.47;4196334;28;20066;-72
2022/03/09 02:34:04;;;;;;;26.85;12.65;;;;;;;-5.72;88.53;99355.69;4186934;28;21193;-72
2022/03/09 02:36:05;;;;;;;26.77;11.20;;;;;;;-5.71;88.79;99362.72;4186291;28;20111;-71
2022/03/09 02:38:05;;;;;;;25.17;11.90;;;;;;;-5.78;88.37;99345.94;4184206;28;20086;-72
2022/03/09 02:40:11;;;;;;;30.90;14.10;;;;;;;-5.73;88.47;99356.75;4183487;28;21736;-72
2022/03/09 02:42:12;;;;;;;38.05;15.05;;;;;;;-5.74;88.57;99349.75;4181604;28;20051;-72
2022/03/09 02:44:12;;;;;;;43.50;16.77;;;;;;;-5.77;88.20;99346.75;4185813;28;20037;-72
2022/03/09 02:46:12;;;;;;;38.83;16.10;;;;;;;-5.85;88.48;99341.78;4188154;28;20206;-72
2022/03/09 02:48:13;;;;;;;34.20;13.93;;;;;;;-5.92;90.26;99355.47;4187723;28;20235;-72
2022/03/09 02:50:15;;;;;;;24.65;10.35;;;;;;;-5.97;90.38;99350.00;4190283;28;20028;-72
2022/03/09 02:52:16;;;;;;;19.13;10.15;;;;;;;-5.98;90.15;99345.69;4189634;28;20147;-72
2022/03/09 02:54:16;;;;;;;41.95;15.32;;;;;;;-5.97;90.75;99350.00;4181381;28;20456;-72
2022/03/09 02:56:17;;;;;;;33.58;14.27;;;;;;;-5.89;91.36;99360.31;4181031;28;20089;-72
2022/03/09 02:58:17;;;;;;;40.28;14.45;;;;;;;-5.82;91.18;99360.94;4181084;28;20029;-72
2022/03/09 03:00:17;;;;;;;26.27;11.70;;;;;;;-5.74;90.57;99362.41;4180979;28;20033;-72
2022/03/09 03:02:18;;;;;;;32.05;12.63;;;;;;;-5.79;90.08;99365.03;4181159;28;20033;-71
2022/03/09 03:04:19;;;;;;;24.83;10.82;;;;;;;-5.81;89.85;99356.38;4182607;28;20028;-71
2022/03/09 03:06:19;;;;;;;28.67;12.05;;;;;;;-5.85;88.96;99372.25;4187023;28;20650;-72
2022/03/09 03:08:20;;;;;;;26.58;9.88;;;;;;;-5.88;88.88;99363.81;4187037;28;20023;-72
2022/03/09 03:10:20;;;;;;;15.35;8.68;;;;;;;-5.92;87.79;99376.22;4189214;28;20180;-72
2022/03/09 03:12:20;;;;;;;15.18;7.88;;;;;;;-5.95;87.54;99381.03;4188360;28;20048;-72
2022/03/09 03:14:20;;;;;;;16.17;8.50;;;;;;;-5.98;87.47;99378.00;4190631;28;20337;-72
2022/03/09 03:16:21;;;;;;;17.42;8.25;;;;;;;-6.02;87.27;99382.28;4190017;28;20495;-71
2022/03/09 03:18:21;;;;;;;18.42;9.20;;;;;;;-6.03;87.45;99380.66;4191041;28;20492;-71
2022/03/09 03:20:22;;;;;;;22.13;11.27;;;;;;;-5.99;87.81;99377.19;4190299;28;20082;-71
2022/03/09 03:22:22;;;;;;;23.63;10.80;;;;;;;-5.98;87.43;99384.22;4187195;28;20079;-71
2022/03/09 03:24:22;;;;;;;24.50;11.07;;;;;;;-5.95;87.19;99399.91;4184456;28;20048;-71
2022/03/09 03:26:24;;;;;;;23.52;11.55;;;;;;;-5.97;86.42;99399.31;4181050;28;20040;-71
2022/03/09 03:28:26;;;;;;;26.45;11.57;;;;;;;-5.92;85.84;99406.66;4180380;28;20118;-71
2022/03/09 03:30:26;;;;;;;28.05;12.43;;;;;;;-5.88;85.09;99407.75;4182140;28;20043;-71
2022/03/09 03:32:26;;;;;;;30.10;12.18;;;;;;;-5.86;85.22;99402.97;4189067;28;20116;-71
2022/03/09 03:34:27;;;;;;;28.90;11.75;;;;;;;-5.88;84.30;99405.06;4192447;28;20072;-72
2022/03/09 03:36:27;;;;;;;24.27;11.20;;;;;;;-5.88;85.33;99405.06;4193687;28;20048;-72
2022/03/09 03:38:27;;;;;;;25.92;11.07;;;;;;;-5.80;85.23;99407.34;4194808;28;20153;-72
2022/03/09 03:40:27;;;;;;;22.77;10.77;;;;;;;-5.72;84.51;99401.50;4194701;28;20175;-72
2022/03/09 03:42:28;;;;;;;17.38;9.38;;;;;;;-5.65;83.84;99402.16;4195706;28;20471;-72
2022/03/09 03:44:28;;;;;;;22.85;10.43;;;;;;;-5.68;83.75;99399.16;4193982;28;20043;-72
2022/03/09 03:46:29;;;;;;;21.70;10.30;;;;;;;-5.73;82.87;99389.09;4194254;28;20041;-72
2022/03/09 03:48:29;;;;;;;18.65;8.93;;;;;;;-5.79;83.09;99379.34;4193550;28;20442;-72
2022/03/09 03:50:29;;;;;;;16.35;9.40;;;;;;;-5.78;83.58;99389.06;4192269;28;20048;-72
2022/03/09 03:52:30;;;;;;;17.00;9.38;;;;;;;-5.84;82.86;99384.66;4194674;28;20372;-72
2022/03/09 03:54:30;;;;;;;20.77;9.48;;;;;;;-5.89;83.30;99386.44;4192806;28;20439;-72
2022/03/09 03:56:30;;;;;;;16.30;9.00;;;;;;;-5.89;82.73;99389.97;4193018;28;20041;-72
2022/03/09 03:58:31;;;;;;;14.93;8.27;;;;;;;-5.90;83.12;99390.25;4192641;28;20219;-72
2022/03/09 04:00:31;;;;;;;19.35;9.40;;;;;;;-5.89;83.70;99403.44;4191247;28;20044;-72
2022/03/09 04:02:32;;;;;;;16.50;8.45;;;;;;;-5.82;83.64;99395.19;4195105;28;20506;-72
2022/03/09 04:04:32;;;;;;;13.50;9.00;;;;;;;-5.73;83.34;99401.78;4188140;28;20053;-72
2022/03/09 04:06:32;;;;;;;16.42;8.60;;;;;;;-5.68;82.84;99399.97;4187681;28;20068;-72
2022/03/09 04:08:33;;;;;;;18.35;9.52;;;;;;;-5.69;82.70;99402.91;4187945;28;20294;-72
2022/03/09 04:10:33;;;;;;;17.25;8.57;;;;;;;-5.76;83.44;99418.44;4188558;28;20111;-72
2022/03/09 04:12:34;;;;;;;18.95;9.18;;;;;;;-5.81;83.64;99410.28;4198451;28;20429;-72
2022/03/09 04:14:34;;;;;;;15.05;7.60;;;;;;;-5.87;83.19;99416.69;4193982;28;20033;-72
2022/03/09 04:16:35;;;;;;;19.52;9.05;;;;;;;-5.87;83.51;99422.06;4187910;28;20048;-72
2022/03/09 04:18:35;;;;;;;16.33;8.80;;;;;;;-5.96;83.21;99413.59;4188344;28;20049;-72
2022/03/09 04:20:35;;;;;;;18.00;9.10;;;;;;;-6.07;83.34;99407.25;4187249;28;20311;-72
2022/03/09 04:22:36;;;;;;;18.20;8.93;;;;;;;-6.16;83.17;99408.75;4188383;28;20052;-71
2022/03/09 04:24:37;;;;;;;20.00;8.98;;;;;;;-6.25;84.87;99410.22;4188039;28;20094;-71
2022/03/09 04:26:37;;;;;;;15.13;8.45;;;;;;;-6.33;85.03;99419.53;4197200;28;20359;-71
2022/03/09 04:28:38;;;;;;;14.63;9.07;;;;;;;-6.34;84.20;99417.91;4196776;28;20246;-71
2022/03/09 04:30:38;;;;;;;17.70;8.88;;;;;;;-6.34;84.50;99420.59;4194894;28;20048;-72
2022/03/09 04:32:38;;;;;;;16.13;8.35;;;;;;;-6.41;84.24;99416.41;4201439;28;20048;-72
2022/03/09 04:34:39;;;;;;;13.95;8.23;;;;;;;-6.46;84.62;99409.06;4187710;28;20585;-72
2022/03/09 04:36:39;;;;;;;18.02;9.57;;;;;;;-6.43;85.78;99413.16;4190827;28;20602;-72
2022/03/09 04:38:40;;;;;;;13.30;8.05;;;;;;;-6.41;84.51;99419.13;4194678;28;20208;-72
2022/03/09 04:40:40;;;;;;;17.55;8.18;;;;;;;-6.45;85.05;99417.94;4193891;28;20369;-72
2022/03/09 04:42:41;;;;;;;45.80;16.25;;;;;;;-6.44;86.23;99425.00;4187725;28;20727;-72
2022/03/09 04:44:41;;;;;;;44.08;15.50;;;;;;;-6.35;86.33;99424.34;4187628;28;20036;-72
2022/03/09 04:46:41;;;;;;;55.63;17.65;;;;;;;-6.25;85.76;99431.75;4193989;28;20044;-72
2022/03/09 04:48:41;;;;;;;61.50;19.70;;;;;;;-6.29;84.77;99428.75;4204010;28;20075;-72
2022/03/09 04:50:42;;;;;;;41.25;14.45;;;;;;;-6.32;85.37;99425.72;4201780;28;20058;-72
2022/03/09 04:52:42;;;;;;;31.60;11.80;;;;;;;-6.35;86.42;99434.31;4200229;28;20132;-72
2022/03/09 04:54:43;;;;;;;28.17;11.52;;;;;;;-6.43;86.03;99427.44;4195355;28;20125;-72
2022/03/09 04:56:43;;;;;;;26.95;11.65;;;;;;;-6.50;86.32;99424.09;4186872;28;20076;-71
2022/03/09 04:58:43;;;;;;;23.17;11.40;;;;;;;-6.56;86.70;99431.25;4187221;28;20396;-71
2022/03/09 05:00:44;;;;;;;25.05;11.05;;;;;;;-6.61;86.85;99425.81;4187589;28;20036;-71
2022/03/09 05:02:44;;;;;;;26.55;12.63;;;;;;;-6.63;87.39;99421.69;4188280;28;20374;-71
2022/03/09 05:04:44;;;;;;;22.17;11.10;;;;;;;-6.72;87.24;99413.22;4193411;28;20048;-71
2022/03/09 05:06:45;;;;;;;25.30;11.27;;;;;;;-6.65;87.89;99423.81;4194909;28;20147;-71
2022/03/09 05:08:45;;;;;;;25.60;11.25;;;;;;;-6.65;88.38;99421.94;4187790;28;20049;-71
2022/03/09 05:10:45;;;;;;;27.73;12.75;;;;;;;-6.70;87.60;99424.56;4187548;28;20480;-71
2022/03/09 05:12:46;;;;;;;23.60;10.40;;;;;;;-6.77;87.63;99418.53;4196748;28;20040;-71
2022/03/09 05:14:46;;;;;;;24.42;10.10;;;;;;;-6.83;89.18;99431.06;4189034;28;20101;-72
2022/03/09 05:16:46;;;;;;;20.23;10.85;;;;;;;-6.89;88.92;99425.81;4188519;28;20493;-72
2022/03/09 05:18:47;;;;;;;19.33;10.57;;;;;;;-6.93;90.77;99430.06;4187092;28;20063;-72
2022/03/09 05:20:47;;;;;;;17.60;9.02;;;;;;;-6.97;91.07;99424.31;4201772;28;20054;-72
2022/03/09 05:22:49;;;;;;;16.25;8.82;;;;;;;-7.00;91.98;99435.59;4192350;28;20044;-72
2022/03/09 05:24:49;;;;;;;22.33;10.30;;;;;;;-7.00;91.45;99427.50;4188658;28;20714;-72
2022/03/09 05:26:50;;;;;;;14.80;8.48;;;;;;;-6.97;92.46;99427.03;4187464;28;20036;-72
2022/03/09 05:28:51;;;;;;;19.88;10.10;;;;;;;-6.98;92.72;99430.78;4191241;28;20480;-72
2022/03/09 05:30:51;;;;;;;21.23;9.85;;;;;;;-7.00;92.38;99424.81;4187413;28;20357;-72
2022/03/09 05:32:51;;;;;;;18.83;10.20;;;;;;;-7.05;92.16;99432.78;4186940;28;20365;-72
2022/03/09 05:34:52;;;;;;;21.35;10.48;;;;;;;-7.03;92.67;99437.91;4188644;28;20048;-72
2022/03/09 05:36:53;;;;;;;18.88;9.05;;;;;;;-7.05;93.02;99430.09;4188358;28;20036;-72
2022/03/09 05:38:53;;;;;;;20.92;9.23;;;;;;;-6.88;91.38;99436.34;4186490;28;20044;-71
2022/03/09 05:40:53;;;;;;;23.88;9.25;;;;;;;-6.80;89.97;99429.75;4197290;28;20044;-71
2022/03/09 05:42:54;;;;;;;16.50;8.85;;;;;;;-6.70;89.02;99435.34;4187866;28;20068;-71
2022/03/09 05:44:54;;;;;;;13.82;8.10;;;;;;;-6.64;89.08;99437.03;4201467;28;20080;-71
2022/03/09 05:46:56;;;;;;;18.38;8.38;;;;;;;-6.67;88.04;99442.91;4200773;28;20339;-71
2022/03/09 05:48:56;;;;;;;17.50;8.80;;;;;;;-6.70;87.70;99440.72;4196409;28;20757;-71
2022/03/09 05:50:57;;;;;;;14.40;7.70;;;;;;;-6.64;87.13;99450.50;4192705;28;20048;-71
2022/03/09 05:52:57;;;;;;;17.17;8.75;;;;;;;-6.49;87.68;99441.88;4189011;28;20135;-72
2022/03/09 05:54:58;;;;;;;15.57;8.48;;;;;;;-6.46;86.77;99432.47;4186861;28;20071;-72
2022/03/09 05:56:58;;;;;;;16.05;7.68;;;;;;;-6.41;87.36;99444.16;4185368;28;20134;-72
2022/03/09 05:58:59;;;;;;;20.75;9.48;;;;;;;-6.31;86.65;99447.03;4185181;28;20933;-72
2022/03/09 06:00:59;;;;;;;19.92;8.48;;;;;;;-6.25;85.88;99454.13;4181724;28;20271;-72
2022/03/09 06:02:59;;;;;;;25.80;10.73;;;;;;;-6.12;85.49;99454.84;4188876;28;20380;-72
2022/03/09 06:05:00;;;;;;;17.20;8.93;;;;;;;-6.07;85.02;99452.25;4186351;28;20376;-72
2022/03/09 06:07:04;;;;;;;17.40;8.05;;;;;;;-6.03;83.85;99453.41;4185659;28;20098;-72
2022/03/09 06:09:04;;;;;;;17.27;8.13;;;;;;;-5.99;84.29;99462.63;4186595;28;20043;-72
2022/03/09 06:11:04;;;;;;;23.02;8.95;;;;;;;-6.01;82.89;99462.88;4193685;28;20385;-72
2022/03/09 06:13:05;;;;;;;20.13;8.73;;;;;;;-6.04;82.82;99466.06;4186615;28;20174;-72
2022/03/09 06:15:06;;;;;;;21.73;10.32;;;;;;;-6.05;83.43;99469.78;4191021;28;20469;-72
2022/03/09 06:17:06;;;;;;;32.90;13.30;;;;;;;-6.12;82.28;99468.31;4200717;28;20052;-72
2022/03/09 06:19:07;;;;;;;21.33;10.98;;;;;;;-6.17;84.06;99463.69;4200927;28;20040;-72
2022/03/09 06:21:07;;;;;;;23.42;10.07;;;;;;;-6.23;83.95;99473.53;4200630;28;20460;-72
2022/03/09 06:23:07;;;;;;;22.58;10.93;;;;;;;-6.26;83.95;99474.03;4201410;28;20051;-72
2022/03/09 06:25:08;;;;;;;34.90;13.13;;;;;;;-6.30;84.60;99470.19;4189871;28;20048;-72
2022/03/09 06:27:09;;;;;;;30.77;14.95;;;;;;;-6.35;84.97;99478.22;4191035;28;20036;-72
2022/03/09 06:29:10;;;;;;;38.03;17.25;;;;;;;-6.43;85.56;99478.59;4188724;28;20081;-72
2022/03/09 06:31:10;;;;;;;31.67;16.33;;;;;;;-6.51;86.02;99479.00;4191294;28;20072;-72
2022/03/09 06:33:10;;;;;;;30.20;15.55;;;;;;;-6.49;85.82;99482.25;4192119;28;20047;-72
2022/03/09 06:35:12;;;;;;;31.65;14.85;;;;;;;-6.45;85.21;99482.56;4190143;28;20071;-72
2022/03/09 06:37:12;;;;;;;24.48;14.00;;;;;;;-6.43;85.33;99478.59;4191034;28;20376;-72
2022/03/09 06:39:15;;;;;;;27.38;13.23;;;;;;;-6.33;84.90;99488.72;4192495;28;20037;-71
2022/03/09 06:41:17;;;;;;;28.42;13.75;;;;;;;-6.26;85.65;99479.44;4189847;28;20138;-71
2022/03/09 06:43:17;;;;;;;22.40;10.65;;;;;;;-6.23;85.52;99495.09;4189694;28;20123;-72
2022/03/09 06:45:18;;;;;;;23.80;11.10;;;;;;;-6.23;85.82;99495.09;4192944;28;20350;-72
2022/03/09 06:47:18;;;;;;;20.55;11.05;;;;;;;-6.23;86.10;99488.91;4191262;28;20479;-72
2022/03/09 06:49:18;;;;;;;20.55;10.00;;;;;;;-6.26;86.94;99492.91;4189714;28;20039;-72
2022/03/09 06:51:19;;;;;;;27.05;11.15;;;;;;;-6.20;87.03;99498.38;4191540;28;20693;-72
2022/03/09 06:53:19;;;;;;;18.65;9.85;;;;;;;-6.19;86.40;99503.53;4191770;28;20512;-72
2022/03/09 06:55:19;;;;;;;18.98;9.70;;;;;;;-6.17;86.73;99504.09;4189957;28;20052;-72
2022/03/09 06:57:20;;;;;;;20.85;9.82;;;;;;;-6.15;87.21;99503.84;4191319;28;20028;-72
2022/03/09 06:59:20;;;;;;;17.65;9.77;;;;;;;-6.20;86.75;99504.59;4192251;28;20106;-72
2022/03/09 07:01:20;;;;;;;24.10;10.95;;;;;;;-6.13;86.83;99501.72;4135238;27;20110;-72
2022/03/09 07:03:21;;;;;;;22.58;10.15;;;;;;;-6.02;86.02;99511.63;4189375;28;20037;-72
2022/03/09 07:05:21;;;;;;;22.83;10.52;;;;;;;-5.91;85.55;99510.72;4194074;28;20040;-72
2022/03/09 07:07:22;;;;;;;18.45;9.43;;;;;;;-5.87;85.32;99506.44;4195382;28;20075;-72
2022/03/09 07:09:22;;;;;;;21.20;10.25;;;;;;;-5.80;84.20;99507.06;4196710;28;20042;-72
2022/03/09 07:11:22;;;;;;;17.60;8.52;;;;;;;-5.77;85.01;99509.28;4195355;28;20332;-72
2022/03/09 07:13:23;;;;;;;19.75;9.60;;;;;;;-5.75;85.85;99501.75;4189569;28;20048;-72
2022/03/09 07:15:23;;;;;;;20.05;8.27;;;;;;;-5.69;86.02;99508.88;4188921;28;20131;-72
2022/03/09 07:17:23;;;;;;;17.25;8.65;;;;;;;-5.65;86.10;99518.09;4190519;28;20044;-72
2022/03/09 07:19:24;;;;;;;20.90;8.27;;;;;;;-5.59;86.72;99520.88;4188409;28;20107;-71
2022/03/09 07:21:24;;;;;;;15.95;8.23;;;;;;;-5.51;86.53;99523.16;4199761;28;20580;-72
2022/03/09 07:23:25;;;;;;;15.27;8.57;;;;;;;-5.47;86.16;99508.09;4196807;28;20494;-72
2022/03/09 07:25:25;;;;;;;16.35;9.27;;;;;;;-5.39;85.13;99510.34;4190945;28;20039;-72
2022/03/09 07:27:25;;;;;;;16.98;9.02;;;;;;;-5.35;84.88;99506.13;4190463;28;20131;-72
2022/03/09 07:29:26;;;;;;;16.30;9.82;;;;;;;-5.27;85.00;99512.97;4191338;28;20526;-72
2022/03/09 07:31:26;;;;;;;20.25;10.95;;;;;;;-5.19;86.05;99507.94;4191041;28;20064;-72
2022/03/09 07:33:26;;;;;;;16.17;9.02;;;;;;;-5.12;85.54;99513.16;4190826;28;20045;-72
2022/03/09 07:35:27;;;;;;;15.43;8.98;;;;;;;-5.02;85.01;99515.19;4191152;28;20040;-72
2022/03/09 07:37:28;;;;;;;17.63;9.25;;;;;;;-4.95;84.54;99511.22;4190104;28;20048;-72
2022/03/09 07:39:29;;;;;;;17.77;9.40;;;;;;;-4.87;83.32;99501.88;4194459;28;20044;-72
2022/03/09 07:41:29;;;;;;;16.77;10.25;;;;;;;-4.80;84.25;99491.66;4205048;28;20123;-72
2022/03/09 07:43:30;;;;;;;21.08;9.40;;;;;;;-4.66;84.29;99501.00;4195141;28;20082;-72
2022/03/09 07:45:30;;;;;;;16.98;10.63;;;;;;;-4.56;84.80;99501.13;4191319;28;20477;-72
2022/03/09 07:47:32;;;;;;;15.18;9.35;;;;;;;-4.45;84.94;99499.34;4189904;28;20350;-72
2022/03/09 07:49:33;;;;;;;20.33;10.68;;;;;;;-4.34;85.28;99500.25;4189218;28;20053;-72
2022/03/09 07:51:34;;;;;;;18.75;10.82;;;;;;;-4.22;85.27;99500.09;4194961;28;20645;-72
2022/03/09 07:53:34;;;;;;;18.70;10.00;;;;;;;-4.13;84.72;99490.47;4197998;28;20506;-72
2022/03/09 07:55:35;;;;;;;20.60;10.43;;;;;;;-4.05;84.06;99493.50;4194104;28;20048;-71
2022/03/09 07:57:36;;;;;;;15.25;8.63;;;;;;;-3.96;84.00;99493.84;4190139;28;20036;-71
2022/03/09 07:59:36;;;;;;;24.60;9.50;;;;;;;-3.86;83.80;99479.59;4191572;28;20421;-71
2022/03/09 08:01:40;;;;;;;19.20;9.48;;;;;;;-3.72;84.53;99486.19;4190626;28;20123;-71
2022/03/09 08:03:40;;;;;;;20.58;8.98;;;;;;;-3.60;83.81;99484.09;4204094;28;20044;-71
2022/03/09 08:05:43;;;;;;;15.68;8.95;;;;;;;-3.54;83.56;99496.59;4205312;28;20036;-71
2022/03/09 08:07:45;;;;;;;18.17;9.10;;;;;;;-3.44;83.26;99493.94;4201259;28;20051;-71
2022/03/09 08:09:45;;;;;;;15.30;8.70;;;;;;;-3.31;83.30;99491.81;4216997;28;20127;-72
2022/03/09 08:11:46;;;;;;;17.10;8.98;;;;;;;-3.23;82.63;99494.03;4196866;27;20486;-72
2022/03/09 08:13:46;;;;;;;16.10;8.30;;;;;;;-3.13;82.53;99500.34;4190808;28;20143;-71
2022/03/09 08:15:46;;;;;;;24.42;11.63;;;;;;;-2.98;82.84;99501.47;4190825;28;20489;-71
2022/03/09 08:17:47;;;;;;;26.73;13.98;;;;;;;-2.89;83.87;99500.72;4191758;28;20044;-71
2022/03/09 08:19:47;;;;;;;22.60;11.95;;;;;;;-2.74;84.50;99501.81;4191033;28;20048;-71
2022/03/09 08:21:47;;;;;;;20.30;9.82;;;;;;;-2.67;84.49;99494.28;4187826;28;20763;-71
2022/03/09 08:23:48;;;;;;;21.33;10.25;;;;;;;-2.59;83.56;99505.41;4187936;28;20153;-71
2022/03/09 08:25:49;;;;;;;27.77;10.57;;;;;;;-2.48;83.81;99502.72;4188398;28;20143;-71
2022/03/09 08:27:49;;;;;;;23.42;10.30;;;;;;;-2.34;83.01;99493.00;4203418;28;20052;-71
2022/03/09 08:29:50;;;;;;;24.77;11.27;;;;;;;-2.22;82.27;99498.19;4190035;28;20114;-71
2022/03/09 08:31:50;;;;;;;17.33;9.27;;;;;;;-2.14;81.48;99506.59;4187828;28;20044;-71
2022/03/09 08:33:51;;;;;;;16.02;8.75;;;;;;;-2.06;80.53;99503.34;4199857;28;20084;-71
2022/03/09 08:35:52;;;;;;;16.15;9.40;;;;;;;-1.99;80.96;99489.50;4186500;28;20217;-71
2022/03/09 08:37:53;;;;;;;20.10;9.05;;;;;;;-1.92;80.50;99486.50;4191792;28;20036;-72
2022/03/09 08:39:53;;;;;;;18.15;10.20;;;;;;;-1.82;80.29;99500.91;4188606;28;20032;-72
2022/03/09 08:41:53;;;;;;;16.90;9.80;;;;;;;-1.74;79.99;99488.66;4183589;28;20111;-72
2022/03/09 08:43:54;;;;;;;21.73;10.32;;;;;;;-1.66;79.19;99481.88;4188136;28;20052;-72
2022/03/09 08:45:54;;;;;;;18.02;9.77;;;;;;;-1.59;79.11;99491.38;4186648;28;20048;-72
2022/03/09 08:47:56;;;;;;;18.52;8.43;;;;;;;-1.52;79.06;99491.91;4183194;28;20048;-72
2022/03/09 08:49:57;;;;;;;14.75;8.65;;;;;;;-1.34;78.87;99484.25;4183892;28;20044;-72
2022/03/09 08:51:57;;;;;;;16.27;8.90;;;;;;;-1.21;78.72;99489.13;4188422;28;20683;-72
2022/03/09 08:53:57;;;;;;;13.75;8.68;;;;;;;-1.09;77.59;99491.53;4191185;28;20598;-72
2022/03/09 08:55:58;;;;;;;16.90;8.05;;;;;;;-1.04;75.58;99497.75;4192308;28;20128;-72
2022/03/09 08:58:00;;;;;;;14.75;7.97;;;;;;;-1.01;75.54;99489.06;4192118;28;20052;-72
2022/03/09 09:00:04;;;;;;;17.10;8.20;;;;;;;-0.77;74.53;99491.13;4192958;28;20049;-72
2022/03/09 09:02:04;;;;;;;20.45;10.25;;;;;;;-0.67;74.77;99494.59;4191498;28;20124;-72
2022/03/09 09:04:05;;;;;;;18.50;10.85;;;;;;;-0.58;74.66;99494.84;4195630;28;20278;-72
2022/03/09 09:06:05;;;;;;;16.23;8.63;;;;;;;-0.49;74.67;99495.09;4183954;28;20032;-72
2022/03/09 09:08:06;;;;;;;17.42;8.88;;;;;;;-0.39;73.36;99500.47;4194504;28;20112;-71
2022/03/09 09:10:07;;;;;;;15.25;8.18;;;;;;;-0.30;73.24;99485.97;4194214;28;20103;-72
2022/03/09 09:12:07;;;;;;;17.83;8.70;;;;;;;-0.22;72.95;99490.00;4191379;28;20060;-72
2022/03/09 09:14:08;;;;;;;15.30;8.55;;;;;;;-0.13;72.26;99496.47;4192579;28;20036;-71
2022/03/09 09:16:08;;;;;;;17.45;8.18;;;;;;;-0.04;72.51;99493.97;4188946;28;20115;-72
2022/03/09 09:18:09;;;;;;;14.48;8.07;;;;;;;0.03;72.25;99491.75;4194167;28;20035;-71
2022/03/09 09:20:09;;;;;;;11.57;7.38;;;;;;;0.16;72.16;99496.50;4192688;28;20047;-71